createdAt,value
2018-10-19T00:00:10.666Z,7.72
2018-10-19T00:01:10.656Z,7.67
2018-10-19T00:02:10.618Z,7.75
2018-10-19T00:03:10.637Z,7.74
2018-10-19T00:04:10.573Z,7.74
2018-10-19T00:05:10.662Z,7.74
2018-10-19T00:06:10.534Z,7.71
2018-10-19T00:07:10.514Z,7.81
2018-10-19T00:08:10.488Z,7.66
2018-10-19T00:09:10.510Z,7.63
2018-10-19T00:10:10.440Z,7.69
2018-10-19T00:11:10.498Z,7.71
2018-10-19T00:12:10.406Z,7.74
2018-10-19T00:13:10.377Z,7.74
2018-10-19T00:14:10.360Z,7.59
2018-10-19T00:15:10.469Z,7.60
2018-10-19T00:16:10.309Z,7.59
2018-10-19T00:17:10.349Z,7.50
2018-10-19T00:18:10.268Z,7.56
2018-10-19T00:19:10.246Z,7.60
2018-10-19T00:20:10.223Z,7.53
2018-10-19T00:21:10.292Z,7.62
2018-10-19T00:22:10.181Z,7.66
2018-10-19T00:23:10.163Z,7.63
2018-10-19T00:24:10.140Z,7.55
2018-10-19T00:25:10.118Z,7.53
2018-10-19T00:26:10.092Z,7.47
2018-10-19T00:27:10.185Z,7.52
2018-10-19T00:28:10.057Z,7.58
2018-10-19T00:29:10.085Z,7.49
2018-10-19T00:30:10.009Z,7.52
2018-10-19T00:31:09.987Z,7.55
2018-10-19T00:32:09.961Z,7.60
2018-10-19T00:33:10.010Z,7.45
2018-10-19T00:34:09.919Z,7.56
2018-10-19T00:35:10.021Z,7.40
2018-10-19T00:36:09.878Z,7.45
2018-10-19T00:37:09.850Z,7.45
2018-10-19T00:38:09.837Z,7.44
2018-10-19T00:39:10.051Z,7.38
2018-10-19T00:40:09.866Z,7.38
2018-10-19T00:41:09.919Z,7.32
2018-10-19T00:42:09.740Z,7.32
2018-10-19T00:43:09.715Z,7.35
2018-10-19T00:44:09.741Z,7.31
2018-10-19T00:45:09.748Z,7.29
2018-10-19T00:46:09.658Z,7.26
2018-10-19T00:47:09.675Z,7.26
2018-10-19T00:48:09.614Z,7.34
2018-10-19T00:49:09.585Z,7.37
2018-10-19T00:50:09.566Z,7.31
2018-10-19T00:51:09.603Z,7.38
2018-10-19T00:52:09.518Z,7.40
2018-10-19T00:53:09.523Z,7.41
2018-10-19T00:54:09.485Z,7.41
2018-10-19T00:55:09.459Z,7.23
2018-10-19T00:56:09.430Z,7.31
2018-10-19T00:57:09.482Z,7.20
2018-10-19T00:58:09.389Z,7.20
2018-10-19T00:59:09.467Z,7.22
2018-10-19T01:00:09.347Z,7.17
2018-10-19T01:01:09.321Z,7.17
2018-10-19T01:02:09.298Z,7.15
2018-10-19T01:03:09.374Z,7.15
2018-10-19T01:04:09.259Z,7.20
2018-10-19T01:05:09.292Z,7.05
2018-10-19T01:06:09.214Z,7.01
2018-10-19T01:07:09.194Z,7.05
2018-10-19T01:08:09.168Z,7.12
2018-10-19T01:09:09.152Z,7.07
2018-10-19T01:10:09.125Z,7.08
2018-10-19T01:11:09.226Z,7.07
2018-10-19T01:12:09.071Z,7.13
2018-10-19T01:13:09.053Z,7.05
2018-10-19T01:14:09.030Z,7.02
2018-10-19T01:15:09.032Z,7.07
2018-10-19T01:16:08.995Z,6.99
2018-10-19T01:17:08.982Z,6.95
2018-10-19T01:18:08.947Z,6.95
2018-10-19T01:19:08.918Z,6.95
2018-10-19T01:20:08.899Z,7.07
2018-10-19T01:21:08.901Z,7.07
2018-10-19T01:22:08.850Z,7.07
2018-10-19T01:23:08.922Z,7.01
2018-10-19T01:24:08.814Z,6.97
2018-10-19T01:25:08.795Z,6.97
2018-10-19T01:26:08.769Z,7.05
2018-10-19T01:27:08.769Z,6.98
2018-10-19T01:28:08.726Z,7.05
2018-10-19T01:29:08.800Z,7.01
2018-10-19T01:30:08.683Z,6.94
2018-10-19T01:31:08.654Z,7.09
2018-10-19T01:32:08.659Z,7.12
2018-10-19T01:33:08.697Z,7.09
2018-10-19T01:34:08.589Z,7.09
2018-10-19T01:35:08.595Z,7.19
2018-10-19T01:36:08.548Z,7.22
2018-10-19T01:37:08.521Z,7.27
2018-10-19T01:38:08.500Z,7.35
2018-10-19T01:39:08.577Z,7.24
2018-10-19T01:40:08.456Z,7.31
2018-10-19T01:41:08.441Z,7.37
2018-10-19T01:42:08.414Z,7.47
2018-10-19T01:43:08.392Z,7.35
2018-10-19T01:44:08.366Z,7.58
2018-10-19T01:45:08.433Z,7.63
2018-10-19T01:46:08.328Z,7.58
2018-10-19T01:47:08.363Z,7.75
2018-10-19T01:48:08.291Z,7.72
2018-10-19T01:49:08.260Z,7.75
2018-10-19T01:50:08.231Z,7.71
2018-10-19T01:51:08.250Z,7.69
2018-10-19T01:52:08.189Z,7.72
2018-10-19T01:53:08.179Z,7.67
2018-10-19T01:54:08.148Z,7.58
2018-10-19T01:55:08.128Z,7.53
2018-10-19T01:56:08.108Z,7.49
2018-10-19T01:57:08.112Z,7.49
2018-10-19T01:58:08.063Z,7.41
2018-10-19T01:59:08.060Z,7.44
2018-10-19T02:00:08.022Z,7.40
2018-10-19T02:01:07.999Z,7.45
2018-10-19T02:02:07.970Z,7.50
2018-10-19T02:03:07.967Z,7.47
2018-10-19T02:04:07.932Z,7.59
2018-10-19T02:05:07.960Z,7.62
2018-10-19T02:06:07.880Z,7.69
2018-10-19T02:07:07.862Z,7.77
2018-10-19T02:08:07.839Z,7.81
2018-10-19T02:09:07.893Z,7.75
2018-10-19T02:10:07.797Z,7.79
2018-10-19T02:11:07.806Z,7.92
2018-10-19T02:12:07.750Z,7.93
2018-10-19T02:13:07.740Z,8.07
2018-10-19T02:14:09.307Z,8.00
2018-10-19T02:15:07.711Z,8.12
2018-10-19T02:16:07.669Z,8.17
2018-10-19T02:17:07.687Z,8.12
2018-10-19T02:18:07.625Z,8.20
2018-10-19T02:19:07.597Z,8.30
2018-10-19T02:20:07.580Z,8.35
2018-10-19T02:21:07.573Z,8.37
2018-10-19T02:22:07.533Z,8.50
2018-10-19T02:23:07.564Z,8.47
2018-10-19T02:24:07.493Z,8.60
2018-10-19T02:25:07.482Z,8.60
2018-10-19T02:26:07.443Z,8.50
2018-10-19T02:27:07.469Z,8.62
2018-10-19T02:28:07.404Z,8.62
2018-10-19T02:29:07.442Z,8.73
2018-10-19T02:30:07.364Z,8.71
2018-10-19T02:31:07.354Z,8.86
2018-10-19T02:32:07.321Z,8.86
2018-10-19T02:33:07.303Z,8.90
2018-10-19T02:34:07.281Z,8.81
2018-10-19T02:35:07.306Z,8.94
2018-10-19T02:36:07.236Z,8.93
2018-10-19T02:37:07.212Z,8.90
2018-10-19T02:38:07.199Z,8.93
2018-10-19T02:39:07.183Z,8.96
2018-10-19T02:40:07.150Z,9.06
2018-10-19T02:41:07.154Z,9.09
2018-10-19T02:42:07.103Z,9.10
2018-10-19T02:43:07.081Z,9.15
2018-10-19T02:44:07.066Z,9.16
2018-10-19T02:45:07.122Z,9.13
2018-10-19T02:46:07.017Z,9.25
2018-10-19T02:47:07.017Z,9.24
2018-10-19T02:48:06.976Z,9.23
2018-10-19T02:49:06.959Z,9.24
2018-10-19T02:50:06.941Z,9.27
2018-10-19T02:51:06.979Z,9.31
2018-10-19T02:52:06.903Z,9.31
2018-10-19T02:53:06.978Z,9.35
2018-10-19T02:54:06.852Z,9.38
2018-10-19T02:55:06.837Z,9.35
2018-10-19T02:56:06.827Z,9.34
2018-10-19T02:57:06.864Z,9.32
2018-10-19T02:58:06.776Z,9.32
2018-10-19T02:59:06.796Z,9.28
2018-10-19T03:00:06.734Z,9.27
2018-10-19T03:01:06.712Z,9.18
2018-10-19T03:02:06.682Z,9.23
2018-10-19T03:03:06.680Z,9.23
2018-10-19T03:04:06.648Z,9.20
2018-10-19T03:05:06.625Z,9.23
2018-10-19T03:06:06.602Z,9.21
2018-10-19T03:07:06.581Z,9.12
2018-10-19T03:08:06.564Z,9.15
2018-10-19T03:09:06.637Z,9.04
2018-10-19T03:10:06.516Z,9.04
2018-10-19T03:11:06.544Z,8.99
2018-10-19T03:12:06.482Z,8.87
2018-10-19T03:13:06.457Z,8.97
2018-10-19T03:14:06.438Z,8.91
2018-10-19T03:15:06.523Z,8.93
2018-10-19T03:16:06.397Z,8.91
2018-10-19T03:17:06.436Z,8.87
2018-10-19T03:18:06.352Z,8.90
2018-10-19T03:19:06.335Z,8.93
2018-10-19T03:20:06.313Z,8.87
2018-10-19T03:21:06.351Z,8.83
2018-10-19T03:22:06.272Z,8.86
2018-10-19T03:23:06.255Z,8.90
2018-10-19T03:24:06.228Z,8.87
2018-10-19T03:25:06.241Z,8.93
2018-10-19T03:26:06.193Z,8.83
2018-10-19T03:27:06.235Z,8.83
2018-10-19T03:28:06.152Z,8.79
2018-10-19T03:29:06.133Z,8.71
2018-10-19T03:30:06.102Z,8.78
2018-10-19T03:31:06.161Z,8.69
2018-10-19T03:32:06.057Z,8.62
2018-10-19T03:33:06.126Z,8.69
2018-10-19T03:34:06.026Z,8.63
2018-10-19T03:35:06.047Z,8.78
2018-10-19T03:36:05.970Z,8.73
2018-10-19T03:37:05.947Z,8.73
2018-10-19T03:38:05.939Z,8.72
2018-10-19T03:39:05.969Z,8.68
2018-10-19T03:40:05.905Z,8.87
2018-10-19T03:41:05.951Z,8.76
2018-10-19T03:42:05.841Z,8.91
2018-10-19T03:43:05.821Z,8.93
2018-10-19T03:44:05.807Z,8.90
2018-10-19T03:45:05.880Z,8.93
2018-10-19T03:46:05.761Z,8.94
2018-10-19T03:47:05.831Z,8.84
2018-10-19T03:48:05.715Z,8.97
2018-10-19T03:49:05.737Z,8.96
2018-10-19T03:50:05.670Z,8.96
2018-10-19T03:51:05.731Z,8.86
2018-10-19T03:52:05.635Z,8.99
2018-10-19T03:53:05.669Z,8.96
2018-10-19T03:54:05.590Z,8.99
2018-10-19T03:55:05.570Z,8.99
2018-10-19T03:56:05.555Z,8.94
2018-10-19T03:57:05.543Z,8.96
2018-10-19T03:58:05.507Z,8.94
2018-10-19T03:59:05.505Z,8.96
2018-10-19T04:00:05.459Z,8.88
2018-10-19T04:01:05.447Z,8.97
2018-10-19T04:02:05.423Z,8.90
2018-10-19T04:03:05.450Z,8.87
2018-10-19T04:04:05.382Z,8.87
2018-10-19T04:05:05.375Z,8.94
2018-10-19T04:06:05.354Z,8.94
2018-10-19T04:07:05.331Z,8.94
2018-10-19T04:08:05.297Z,8.81
2018-10-19T04:09:05.328Z,8.81
2018-10-19T04:10:05.258Z,8.87
2018-10-19T04:11:05.260Z,8.93
2018-10-19T04:12:05.229Z,8.94
2018-10-19T04:13:05.201Z,8.90
2018-10-19T04:14:05.175Z,8.94
2018-10-19T04:15:05.187Z,8.90
2018-10-19T04:16:05.127Z,8.88
2018-10-19T04:17:05.141Z,8.99
2018-10-19T04:18:05.096Z,8.97
2018-10-19T04:19:05.080Z,8.97
2018-10-19T04:20:05.043Z,8.86
2018-10-19T04:21:05.095Z,8.99
2018-10-19T04:22:04.997Z,8.90
2018-10-19T04:23:05.033Z,8.86
2018-10-19T04:24:04.975Z,8.86
2018-10-19T04:25:04.936Z,8.83
2018-10-19T04:26:04.911Z,8.83
2018-10-19T04:27:04.985Z,8.71
2018-10-19T04:28:04.870Z,8.60
2018-10-19T04:29:04.875Z,8.62
2018-10-19T04:30:04.832Z,8.55
2018-10-19T04:31:04.810Z,8.47
2018-10-19T04:32:04.795Z,8.50
2018-10-19T04:33:04.817Z,8.50
2018-10-19T04:34:04.748Z,8.39
2018-10-19T04:35:04.785Z,8.30
2018-10-19T04:36:04.702Z,8.17
2018-10-19T04:37:04.705Z,8.12
2018-10-19T04:38:04.660Z,8.17
2018-10-19T04:39:04.719Z,8.17
2018-10-19T04:40:04.615Z,8.11
2018-10-19T04:41:04.615Z,8.07
2018-10-19T04:42:04.752Z,7.97
2018-10-19T04:43:04.558Z,7.96
2018-10-19T04:44:04.532Z,8.00
2018-10-19T04:45:04.520Z,7.89
2018-10-19T04:46:04.492Z,7.89
2018-10-19T04:47:04.532Z,7.94
2018-10-19T04:48:04.441Z,7.90
2018-10-19T04:49:04.418Z,7.93
2018-10-19T04:50:04.415Z,7.81
2018-10-19T04:51:04.388Z,7.82
2018-10-19T04:52:04.357Z,7.72
2018-10-19T04:53:04.395Z,7.79
2018-10-19T04:54:04.315Z,7.77
2018-10-19T04:55:04.295Z,7.74
2018-10-19T04:56:04.273Z,7.74
2018-10-19T04:57:04.264Z,7.85
2018-10-19T04:58:04.225Z,7.90
2018-10-19T04:59:04.293Z,7.87
2018-10-19T05:00:04.187Z,7.94
2018-10-19T05:01:04.158Z,7.99
2018-10-19T05:02:04.155Z,8.00
2018-10-19T05:03:04.179Z,8.07
2018-10-19T05:04:04.108Z,8.12
2018-10-19T05:05:04.090Z,8.20
2018-10-19T05:06:04.173Z,8.11
2018-10-19T05:07:04.038Z,8.29
2018-10-19T05:08:04.070Z,8.32
2018-10-19T05:09:03.987Z,8.39
2018-10-19T05:10:03.967Z,8.36
2018-10-19T05:11:03.986Z,8.37
2018-10-19T05:12:03.923Z,8.45
2018-10-19T05:13:03.968Z,8.42
2018-10-19T05:14:03.892Z,8.48
2018-10-19T05:15:03.856Z,8.48
2018-10-19T05:16:03.846Z,8.54
2018-10-19T05:17:03.852Z,8.53
2018-10-19T05:18:03.798Z,8.62
2018-10-19T05:19:03.770Z,8.62
2018-10-19T05:20:03.798Z,8.55
2018-10-19T05:21:03.728Z,8.55
2018-10-19T05:22:03.709Z,8.73
2018-10-19T05:23:03.725Z,8.69
2018-10-19T05:24:03.667Z,8.86
2018-10-19T05:25:03.641Z,8.90
2018-10-19T05:26:03.683Z,8.90
2018-10-19T05:27:03.596Z,8.83
2018-10-19T05:28:03.577Z,8.93
2018-10-19T05:29:03.614Z,8.97
2018-10-19T05:30:03.539Z,8.94
2018-10-19T05:31:03.517Z,8.97
2018-10-19T05:32:03.511Z,9.02
2018-10-19T05:33:03.566Z,8.99
2018-10-19T05:34:03.455Z,8.97
2018-10-19T05:35:03.473Z,8.99
2018-10-19T05:36:03.416Z,9.01
2018-10-19T05:37:03.391Z,9.09
2018-10-19T05:38:03.452Z,8.99
2018-10-19T05:39:03.346Z,8.99
2018-10-19T05:40:03.327Z,8.99
2018-10-19T05:41:03.371Z,8.96
2018-10-19T05:42:03.280Z,8.86
2018-10-19T05:43:03.256Z,8.96
2018-10-19T05:44:03.258Z,9.01
2018-10-19T05:45:03.216Z,8.99
2018-10-19T05:46:03.197Z,8.97
2018-10-19T05:47:03.227Z,8.96
2018-10-19T05:48:03.156Z,8.91
2018-10-19T05:49:03.131Z,8.91
2018-10-19T05:50:03.166Z,8.87
2018-10-19T05:51:03.089Z,8.78
2018-10-19T05:52:03.115Z,8.75
2018-10-19T05:53:03.109Z,8.66
2018-10-19T05:54:03.021Z,8.71
2018-10-19T05:55:03.022Z,8.60
2018-10-19T05:56:03.013Z,8.57
2018-10-19T05:57:02.958Z,8.57
2018-10-19T05:58:02.942Z,8.58
2018-10-19T05:59:02.947Z,8.45
2018-10-19T06:00:02.900Z,8.37
2018-10-19T06:01:02.878Z,8.39
2018-10-19T06:02:02.959Z,8.30
2018-10-19T06:03:02.833Z,8.21
2018-10-19T06:04:02.810Z,8.25
2018-10-19T06:05:02.854Z,8.22
2018-10-19T06:06:02.769Z,8.11
2018-10-19T06:07:02.747Z,8.12
2018-10-19T06:08:02.749Z,8.15
2018-10-19T06:09:02.706Z,8.14
2018-10-19T06:10:02.690Z,8.14
2018-10-19T06:11:02.719Z,8.15
2018-10-19T06:12:02.645Z,8.08
2018-10-19T06:13:02.616Z,8.00
2018-10-19T06:14:02.651Z,7.99
2018-10-19T06:15:02.581Z,7.99
2018-10-19T06:16:02.555Z,8.07
2018-10-19T06:17:02.543Z,8.04
2018-10-19T06:18:02.515Z,7.99
2018-10-19T06:19:02.493Z,7.94
2018-10-19T06:20:02.519Z,7.93
2018-10-19T06:21:02.517Z,7.93
2018-10-19T06:22:02.432Z,7.87
2018-10-19T06:23:02.418Z,7.90
2018-10-19T06:24:02.378Z,7.94
2018-10-19T06:25:02.365Z,7.89
2018-10-19T06:26:02.435Z,7.89
2018-10-19T06:27:02.328Z,7.92
2018-10-19T06:28:02.299Z,7.93
2018-10-19T06:29:02.344Z,7.92
2018-10-19T06:30:02.255Z,7.97
2018-10-19T06:31:02.226Z,8.03
2018-10-19T06:32:02.285Z,8.07
2018-10-19T06:33:02.183Z,8.08
2018-10-19T06:34:02.177Z,8.10
2018-10-19T06:35:02.221Z,8.10
2018-10-19T06:36:02.123Z,8.14
2018-10-19T06:37:02.095Z,8.07
2018-10-19T06:38:02.138Z,8.18
2018-10-19T06:39:02.056Z,8.15
2018-10-19T06:40:02.032Z,8.17
2018-10-19T06:41:02.061Z,8.11
2018-10-19T06:42:01.986Z,8.20
2018-10-19T06:43:01.967Z,8.25
2018-10-19T06:44:02.080Z,8.28
2018-10-19T06:45:01.932Z,8.28
2018-10-19T06:46:01.899Z,8.26
2018-10-19T06:47:01.898Z,8.21
2018-10-19T06:48:01.869Z,8.35
2018-10-19T06:49:01.931Z,8.30
2018-10-19T06:50:01.842Z,8.42
2018-10-19T06:51:01.800Z,8.44
2018-10-19T06:52:01.778Z,8.42
2018-10-19T06:53:01.781Z,8.44
2018-10-19T06:54:01.752Z,8.47
2018-10-19T06:55:01.707Z,8.55
2018-10-19T06:56:01.761Z,8.54
2018-10-19T06:57:01.662Z,8.62
2018-10-19T06:58:01.655Z,8.54
2018-10-19T06:59:01.755Z,8.60
2018-10-19T07:00:01.604Z,8.58
2018-10-19T07:01:01.585Z,8.65
2018-10-19T07:02:01.627Z,8.73
2018-10-19T07:03:01.540Z,8.84
2018-10-19T07:04:01.527Z,8.87
2018-10-19T07:05:01.560Z,8.81
2018-10-19T07:06:01.500Z,8.87
2018-10-19T07:07:01.453Z,8.94
2018-10-19T07:08:01.521Z,8.99
2018-10-19T07:09:01.410Z,9.09
2018-10-19T07:10:01.388Z,9.13
2018-10-19T07:11:01.382Z,9.20
2018-10-19T07:12:01.383Z,9.20
2018-10-19T07:13:01.322Z,9.18
2018-10-19T07:14:01.359Z,9.39
2018-10-19T07:15:01.291Z,9.39
2018-10-19T07:16:01.292Z,9.49
2018-10-19T07:17:01.250Z,9.52
2018-10-19T07:18:01.219Z,9.61
2018-10-19T07:19:01.267Z,9.70
2018-10-19T07:20:01.240Z,9.71
2018-10-19T07:21:01.152Z,9.82
2018-10-19T07:22:01.132Z,9.86
2018-10-19T07:23:01.202Z,9.88
2018-10-19T07:24:01.100Z,9.99
2018-10-19T07:25:01.068Z,10.09
2018-10-19T07:26:01.103Z,10.15
2018-10-19T07:27:01.027Z,10.24
2018-10-19T07:28:01.014Z,10.24
2018-10-19T07:29:01.041Z,10.26
2018-10-19T07:30:00.965Z,10.39
2018-10-19T07:31:00.950Z,10.51
2018-10-19T07:32:00.990Z,10.56
2018-10-19T07:33:00.913Z,10.63
2018-10-19T07:34:00.881Z,10.74
2018-10-19T07:35:00.881Z,10.80
2018-10-19T07:36:00.855Z,10.80
2018-10-19T07:37:00.820Z,10.76
2018-10-19T07:38:00.860Z,10.91
2018-10-19T07:39:00.782Z,11.01
2018-10-19T07:40:00.766Z,11.27
2018-10-19T07:41:00.774Z,11.62
2018-10-19T07:42:00.798Z,12.01
2018-10-19T07:43:00.699Z,12.44
2018-10-19T07:44:00.719Z,12.63
2018-10-19T07:45:00.660Z,12.88
2018-10-19T07:46:00.642Z,12.99
2018-10-19T07:47:00.674Z,13.17
2018-10-19T07:48:00.825Z,13.33
2018-10-19T07:49:00.587Z,13.41
2018-10-19T07:50:00.585Z,13.59
2018-10-19T07:51:00.549Z,13.70
2018-10-19T07:52:00.523Z,13.84
2018-10-19T07:53:00.528Z,14.07
2018-10-19T07:54:00.538Z,14.01
2018-10-19T07:55:00.466Z,14.04
2018-10-19T07:56:00.483Z,13.83
2018-10-19T07:57:00.438Z,14.09
2018-10-19T07:58:00.414Z,14.17
2018-10-19T07:59:00.438Z,14.32
2018-10-19T08:00:00.376Z,14.52
2018-10-19T08:01:00.363Z,14.68
2018-10-19T08:02:00.374Z,14.99
2018-10-19T08:03:00.313Z,15.21
2018-10-19T08:04:00.297Z,15.09
2018-10-19T08:05:00.320Z,15.21
2018-10-19T08:06:00.259Z,15.24
2018-10-19T08:07:00.243Z,15.38
2018-10-19T08:08:00.279Z,15.38
2018-10-19T08:09:00.211Z,15.43
2018-10-19T08:10:00.195Z,15.60
2018-10-19T08:11:00.176Z,15.75
2018-10-19T08:12:00.156Z,15.78
2018-10-19T08:13:00.143Z,15.88
2018-10-19T08:14:00.146Z,16.03
2018-10-19T08:15:00.109Z,16.01
2018-10-19T08:16:00.087Z,16.27
2018-10-19T08:17:00.101Z,16.35
2018-10-19T08:18:00.052Z,16.20
2018-10-19T08:19:00.036Z,16.26
2018-10-19T08:20:00.033Z,16.16
2018-10-19T08:21:00.003Z,16.25
2018-10-19T08:21:59.982Z,16.33
2018-10-19T08:23:00.002Z,16.09
2018-10-19T08:23:59.945Z,15.76
2018-10-19T08:24:59.930Z,15.94
2018-10-19T08:25:59.938Z,15.85
2018-10-19T08:26:59.893Z,16.03
2018-10-19T08:27:59.882Z,16.15
2018-10-19T08:28:59.889Z,16.22
2018-10-19T08:29:59.865Z,16.42
2018-10-19T08:30:59.826Z,16.86
2018-10-19T08:31:59.827Z,17.13
2018-10-19T08:32:59.798Z,17.32
2018-10-19T08:33:59.778Z,17.44
2018-10-19T08:34:59.815Z,17.04
2018-10-19T08:35:59.752Z,16.98
2018-10-19T08:36:59.734Z,17.13
2018-10-19T08:37:59.794Z,17.29
2018-10-19T08:38:59.705Z,17.59
2018-10-19T08:39:59.689Z,17.85
2018-10-19T08:40:59.695Z,18.02
2018-10-19T08:41:59.660Z,18.13
2018-10-19T08:42:59.681Z,18.00
2018-10-19T08:43:59.622Z,17.89
2018-10-19T08:44:59.616Z,17.92
2018-10-19T08:45:59.590Z,17.94
2018-10-19T08:46:59.645Z,17.70
2018-10-19T08:47:59.562Z,17.91
2018-10-19T08:48:59.582Z,17.92
2018-10-19T08:49:59.529Z,18.27
2018-10-19T08:50:59.544Z,18.36
2018-10-19T08:51:59.497Z,18.55
2018-10-19T08:52:59.555Z,18.80
2018-10-19T08:53:59.478Z,18.92
2018-10-19T08:54:59.471Z,18.70
2018-10-19T08:55:59.445Z,18.65
2018-10-19T08:56:59.481Z,18.21
2018-10-19T08:57:59.594Z,18.12
2018-10-19T08:58:59.399Z,18.17
2018-10-19T08:59:59.395Z,18.15
2018-10-19T09:00:59.379Z,18.19
2018-10-19T09:01:59.359Z,18.40
2018-10-19T09:02:59.342Z,18.64
2018-10-19T09:03:59.369Z,18.92
2018-10-19T09:04:59.344Z,19.32
2018-10-19T09:05:59.316Z,19.54
2018-10-19T09:06:59.284Z,19.48
2018-10-19T09:07:59.268Z,19.36
2018-10-19T09:08:59.257Z,19.29
2018-10-19T09:09:59.233Z,19.15
2018-10-19T09:10:59.342Z,19.05
2018-10-19T09:11:59.211Z,19.15
2018-10-19T09:12:59.201Z,19.11
2018-10-19T09:13:59.175Z,18.99
2018-10-19T09:14:59.177Z,19.11
2018-10-19T09:15:59.156Z,19.14
2018-10-19T09:16:59.203Z,18.67
2018-10-19T09:17:59.127Z,18.67
2018-10-19T09:18:59.114Z,18.55
2018-10-19T09:19:59.098Z,18.25
2018-10-19T09:20:59.096Z,18.09
2018-10-19T09:21:59.073Z,18.04
2018-10-19T09:22:59.056Z,18.25
2018-10-19T09:23:59.041Z,18.27
2018-10-19T09:24:59.028Z,18.65
2018-10-19T09:25:59.012Z,18.76
2018-10-19T09:26:59.054Z,18.86
2018-10-19T09:27:58.997Z,18.82
2018-10-19T09:28:58.983Z,19.01
2018-10-19T09:29:58.958Z,19.21
2018-10-19T09:30:58.948Z,18.91
2018-10-19T09:31:58.938Z,18.74
2018-10-19T09:32:58.919Z,18.94
2018-10-19T09:33:58.903Z,19.24
2018-10-19T09:34:58.936Z,19.46
2018-10-19T09:35:58.955Z,19.83
2018-10-19T09:36:58.936Z,20.05
2018-10-19T09:37:58.849Z,20.39
2018-10-19T09:38:58.847Z,20.27
2018-10-19T09:39:58.862Z,19.76
2018-10-19T09:40:58.832Z,19.75
2018-10-19T09:41:58.814Z,19.66
2018-10-19T09:42:58.794Z,19.94
2018-10-19T09:43:58.778Z,20.30
2018-10-19T09:44:58.779Z,20.41
2018-10-19T09:45:58.743Z,20.38
2018-10-19T09:46:58.773Z,20.27
2018-10-19T09:47:58.724Z,20.23
2018-10-19T09:48:58.732Z,20.71
2018-10-19T09:49:58.711Z,20.86
2018-10-19T09:50:58.723Z,20.90
2018-10-19T09:51:58.682Z,20.93
2018-10-19T09:52:58.711Z,20.86
2018-10-19T09:53:58.653Z,20.95
2018-10-19T09:54:58.707Z,20.76
2018-10-19T09:55:58.655Z,20.41
2018-10-19T09:56:58.658Z,20.31
2018-10-19T09:57:58.602Z,20.06
2018-10-19T09:58:58.623Z,20.02
2018-10-19T09:59:58.573Z,20.27
2018-10-19T10:00:58.604Z,20.53
2018-10-19T10:01:58.571Z,20.41
2018-10-19T10:02:58.565Z,20.05
2018-10-19T10:03:58.535Z,20.03
2018-10-19T10:04:58.534Z,20.15
2018-10-19T10:05:58.507Z,20.54
2018-10-19T10:06:58.506Z,20.30
2018-10-19T10:07:58.540Z,20.34
2018-10-19T10:08:58.501Z,20.34
2018-10-19T10:09:58.475Z,20.21
2018-10-19T10:10:58.457Z,19.98
2018-10-19T10:11:58.447Z,20.20
2018-10-19T10:12:58.428Z,20.49
2018-10-19T10:13:58.409Z,20.49
2018-10-19T10:14:58.423Z,20.59
2018-10-19T10:15:58.386Z,20.49
2018-10-19T10:16:58.433Z,20.46
2018-10-19T10:17:58.360Z,20.56
2018-10-19T10:18:58.355Z,20.47
2018-10-19T10:19:58.338Z,20.46
2018-10-19T10:20:58.333Z,20.24
2018-10-19T10:21:58.364Z,20.33
2018-10-19T10:22:58.303Z,20.39
2018-10-19T10:23:58.294Z,20.25
2018-10-19T10:24:58.425Z,20.28
2018-10-19T10:25:58.277Z,20.31
2018-10-19T10:26:58.265Z,20.24
2018-10-19T10:27:58.254Z,20.24
2018-10-19T10:28:58.236Z,20.30
2018-10-19T10:29:58.233Z,20.34
2018-10-19T10:30:58.218Z,20.42
2018-10-19T10:31:58.215Z,20.38
2018-10-19T10:32:58.197Z,20.41
2018-10-19T10:33:58.242Z,20.28
2018-10-19T10:34:58.175Z,20.24
2018-10-19T10:35:58.194Z,20.27
2018-10-19T10:36:58.188Z,20.35
2018-10-19T10:37:58.136Z,20.24
2018-10-19T10:38:58.179Z,20.05
2018-10-19T10:39:58.142Z,20.05
2018-10-19T10:40:58.102Z,20.50
2018-10-19T10:41:58.098Z,20.77
2018-10-19T10:42:58.096Z,20.89
2018-10-19T10:43:58.080Z,20.72
2018-10-19T10:44:58.066Z,20.93
2018-10-19T10:45:58.069Z,21.16
2018-10-19T10:46:58.093Z,21.32
2018-10-19T10:47:58.028Z,21.66
2018-10-19T10:48:58.110Z,21.98
2018-10-19T10:49:58.016Z,21.81
2018-10-19T10:50:57.999Z,21.97
2018-10-19T10:51:58.000Z,22.37
2018-10-19T10:52:57.980Z,22.43
2018-10-19T10:53:57.971Z,22.13
2018-10-19T10:54:57.963Z,21.91
2018-10-19T10:55:57.954Z,21.63
2018-10-19T10:56:57.945Z,21.53
2018-10-19T10:57:57.989Z,21.27
2018-10-19T10:58:57.929Z,21.19
2018-10-19T10:59:57.923Z,21.20
2018-10-19T11:00:57.959Z,21.21
2018-10-19T11:01:57.912Z,21.02
2018-10-19T11:02:57.888Z,21.13
2018-10-19T11:03:57.939Z,20.93
2018-10-19T11:04:57.886Z,21.02
2018-10-19T11:05:57.862Z,21.21
2018-10-19T11:06:57.884Z,21.54
2018-10-19T11:07:57.847Z,21.78
2018-10-19T11:08:57.832Z,21.90
2018-10-19T11:09:57.867Z,21.76
2018-10-19T11:10:57.824Z,21.91
2018-10-19T11:11:57.808Z,22.34
2018-10-19T11:12:57.831Z,22.22
2018-10-19T11:13:57.795Z,21.82
2018-10-19T11:14:57.792Z,21.67
2018-10-19T11:15:57.790Z,21.74
2018-10-19T11:16:57.779Z,21.71
2018-10-19T11:17:57.757Z,21.60
2018-10-19T11:18:57.778Z,21.79
2018-10-19T11:19:57.744Z,21.92
2018-10-19T11:20:57.741Z,21.78
2018-10-19T11:21:57.740Z,21.78
2018-10-19T11:22:57.721Z,21.66
2018-10-19T11:23:57.729Z,21.61
2018-10-19T11:24:57.753Z,21.66
2018-10-19T11:25:57.700Z,21.85
2018-10-19T11:26:57.691Z,21.85
2018-10-19T11:27:57.703Z,21.98
2018-10-19T11:28:57.675Z,21.97
2018-10-19T11:29:57.669Z,21.99
2018-10-19T11:30:57.706Z,22.07
2018-10-19T11:31:57.649Z,21.72
2018-10-19T11:32:57.642Z,21.76
2018-10-19T11:33:57.691Z,22.04
2018-10-19T11:34:57.627Z,22.22
2018-10-19T11:35:57.630Z,22.17
2018-10-19T11:36:57.652Z,22.22
2018-10-19T11:37:57.647Z,22.10
2018-10-19T11:38:57.597Z,22.10
2018-10-19T11:39:57.625Z,21.94
2018-10-19T11:40:57.586Z,22.19
2018-10-19T11:41:57.578Z,22.34
2018-10-19T11:42:57.610Z,22.41
2018-10-19T11:43:57.564Z,22.38
2018-10-19T11:44:57.556Z,22.32
2018-10-19T11:45:57.596Z,22.47
2018-10-19T11:46:57.547Z,22.56
2018-10-19T11:47:57.540Z,22.34
2018-10-19T11:48:57.589Z,22.13
2018-10-19T11:49:57.518Z,22.20
2018-10-19T11:50:57.514Z,22.13
2018-10-19T11:51:57.531Z,21.92
2018-10-19T11:52:57.507Z,21.41
2018-10-19T11:53:57.496Z,21.48
2018-10-19T11:54:57.571Z,21.74
2018-10-19T11:55:57.491Z,21.83
2018-10-19T11:56:57.488Z,21.64
2018-10-19T11:57:57.489Z,21.54
2018-10-19T11:58:57.459Z,21.63
2018-10-19T11:59:57.459Z,21.98
2018-10-19T12:00:57.464Z,21.69
2018-10-19T12:01:57.453Z,21.61
2018-10-19T12:02:57.439Z,21.53
2018-10-19T12:03:57.444Z,21.67
2018-10-19T12:04:57.414Z,21.82
2018-10-19T12:05:57.409Z,21.91
2018-10-19T12:06:57.464Z,22.01
2018-10-19T12:07:57.398Z,21.97
2018-10-19T12:08:57.395Z,22.10
2018-10-19T12:09:57.395Z,21.92
2018-10-19T12:10:57.381Z,21.92
2018-10-19T12:11:57.370Z,21.88
2018-10-19T12:12:57.436Z,21.91
2018-10-19T12:13:57.369Z,21.97
2018-10-19T12:14:57.403Z,21.81
2018-10-19T12:15:57.358Z,21.46
2018-10-19T12:16:57.472Z,21.44
2018-10-19T12:17:57.325Z,21.23
2018-10-19T12:18:57.345Z,21.24
2018-10-19T12:19:57.316Z,20.98
2018-10-19T12:20:57.341Z,21.06
2018-10-19T12:21:57.306Z,20.98
2018-10-19T12:22:57.294Z,20.61
2018-10-19T12:23:57.287Z,20.28
2018-10-19T12:24:57.325Z,19.98
2018-10-19T12:25:57.331Z,19.94
2018-10-19T12:26:57.263Z,19.93
2018-10-19T12:27:57.255Z,20.05
2018-10-19T12:28:57.242Z,20.23
2018-10-19T12:29:57.233Z,20.58
2018-10-19T12:30:57.242Z,20.83
2018-10-19T12:31:57.217Z,20.99
2018-10-19T12:32:57.213Z,21.17
2018-10-19T12:33:57.201Z,21.13
2018-10-19T12:34:57.201Z,21.29
2018-10-19T12:35:57.182Z,21.32
2018-10-19T12:36:57.185Z,21.23
2018-10-19T12:37:57.169Z,21.48
2018-10-19T12:38:57.204Z,21.88
2018-10-19T12:39:57.163Z,21.76
2018-10-19T12:40:57.198Z,22.01
2018-10-19T12:41:57.127Z,22.07
2018-10-19T12:42:57.153Z,22.16
2018-10-19T12:43:57.114Z,22.23
2018-10-19T12:44:57.158Z,21.94
2018-10-19T12:45:57.099Z,21.34
2018-10-19T12:46:57.092Z,21.27
2018-10-19T12:47:57.085Z,21.19
2018-10-19T12:48:57.084Z,21.13
2018-10-19T12:49:57.063Z,21.09
2018-10-19T12:50:57.066Z,21.24
2018-10-19T12:51:57.049Z,21.08
2018-10-19T12:52:57.040Z,21.24
2018-10-19T12:53:57.057Z,21.42
2018-10-19T12:54:57.041Z,21.29
2018-10-19T12:55:57.021Z,21.32
2018-10-19T12:56:57.071Z,21.53
2018-10-19T12:57:57.000Z,21.61
2018-10-19T12:58:56.999Z,21.82
2018-10-19T12:59:56.989Z,22.06
2018-10-19T13:00:56.995Z,22.13
2018-10-19T13:01:56.966Z,22.23
2018-10-19T13:02:56.977Z,21.76
2018-10-19T13:03:56.954Z,21.42
2018-10-19T13:04:56.955Z,21.04
2018-10-19T13:05:56.941Z,20.87
2018-10-19T13:06:56.973Z,20.84